Time;durP1;ratioP1;P1;durP2;ratioP2;P2;SDS_P1;SDS_P2;PMS_P1;PMS_P2;Temp;Humidity;BMP_temperature;BMP_pressure;BME280_temperature;BME280_humidity;BME280_pressure;Samples;Min_cycle;Max_cycle;Signal;HPM_P1;HPM_P2
2023/12/10 00:01:57;;;;;;;55.70;40.70;;;;;;;-0.41;100.00;99456.80;113669;1233;22027;-81
2023/12/10 00:04:26;;;;;;;53.00;40.60;;;;;;;-0.42;100.00;99460.77;113745;1233;22695;-81
2023/12/10 00:06:57;;;;;;;54.60;40.30;;;;;;;-0.43;100.00;99461.11;113850;1233;21936;-82
2023/12/10 00:09:26;;;;;;;57.10;40.40;;;;;;;-0.44;100.00;99463.84;113557;1233;21955;-82
2023/12/10 00:12:02;;;;;;;54.60;40.00;;;;;;;-0.43;100.00;99473.75;113912;1234;23714;-82
2023/12/10 00:14:45;;;;;;;53.20;39.30;;;;;;;-0.42;100.00;99466.56;113667;1233;22418;-81
2023/12/10 00:17:24;;;;;;;57.00;38.10;;;;;;;-0.40;100.00;99461.94;113750;1233;22692;-82
2023/12/10 00:19:52;;;;;;;55.20;39.80;;;;;;;-0.37;100.00;99467.90;113744;1233;21953;-82
2023/12/10 00:22:25;;;;;;;56.50;38.60;;;;;;;-0.35;100.00;99476.42;113847;1226;21973;-80
2023/12/10 00:25:02;;;;;;;44.10;34.60;;;;;;;-0.32;100.00;99477.95;113179;1233;21989;-83
2023/12/10 00:27:37;;;;;;;45.30;35.40;;;;;;;-0.32;100.00;99473.16;113741;1233;21946;-80
2023/12/10 00:30:07;;;;;;;49.70;40.10;;;;;;;-0.31;100.00;99467.69;113774;1233;22999;-82
2023/12/10 00:32:37;;;;;;;50.20;38.50;;;;;;;-0.30;100.00;99461.34;113460;1233;22726;-82
2023/12/10 00:35:06;;;;;;;46.40;36.10;;;;;;;-0.28;100.00;99454.83;113303;1238;21932;-82
2023/12/10 00:37:35;;;;;;;49.30;36.60;;;;;;;-0.28;100.00;99451.59;113134;1238;21939;-81
2023/12/10 00:40:11;;;;;;;61.30;40.50;;;;;;;-0.27;100.00;99458.25;112566;1242;23945;-82
2023/12/10 00:42:43;;;;;;;41.80;32.40;;;;;;;-0.23;100.00;99452.75;112632;1242;23686;-82
2023/12/10 00:45:13;;;;;;;49.80;35.60;;;;;;;-0.22;100.00;99446.75;112333;1246;22862;-81
2023/12/10 00:47:42;;;;;;;48.60;34.90;;;;;;;-0.21;100.00;99448.62;112250;1246;22138;-82
2023/12/10 00:50:21;;;;;;;54.00;39.80;;;;;;;-0.20;100.00;99446.38;112471;1245;23581;-81
2023/12/10 00:52:50;;;;;;;46.70;35.40;;;;;;;-0.18;100.00;99452.19;112162;1245;21954;-81
2023/12/10 00:55:19;;;;;;;42.70;35.40;;;;;;;-0.17;100.00;99451.15;112309;1245;21972;-81
2023/12/10 00:57:47;;;;;;;47.70;34.70;;;;;;;-0.15;100.00;99447.37;112038;1248;23613;-82
2023/12/10 01:00:17;;;;;;;41.10;34.00;;;;;;;-0.14;100.00;99449.23;112142;1248;21983;-82
2023/12/10 01:02:46;;;;;;;41.50;34.10;;;;;;;-0.13;100.00;99446.84;111540;1251;21959;-80
2023/12/10 01:05:14;;;;;;;39.90;31.90;;;;;;;-0.13;100.00;99440.52;111518;1249;21972;-81
2023/12/10 01:07:42;;;;;;;40.10;32.60;;;;;;;-0.11;100.00;99440.31;111689;1249;23710;-81
2023/12/10 01:10:10;;;;;;;42.50;33.90;;;;;;;-0.09;100.00;99440.65;111704;1245;21973;-83
2023/12/10 01:12:41;;;;;;;40.50;33.40;;;;;;;-0.09;100.00;99439.63;112310;1245;21984;-81
2023/12/10 01:15:10;;;;;;;44.00;34.50;;;;;;;-0.10;100.00;99442.53;112355;1245;21980;-82
2023/12/10 01:17:38;;;;;;;45.30;35.70;;;;;;;-0.10;100.00;99438.77;112146;1245;21957;-80
2023/12/10 01:20:07;;;;;;;42.70;32.60;;;;;;;-0.09;100.00;99439.96;112275;1239;21938;-80
2023/12/10 01:22:35;;;;;;;40.40;32.80;;;;;;;-0.09;100.00;99438.25;113002;1233;21962;-79
2023/12/10 01:25:03;;;;;;;44.50;36.10;;;;;;;-0.07;100.00;99433.80;112821;1241;22961;-82
2023/12/10 01:27:31;;;;;;;36.80;31.40;;;;;;;-0.08;100.00;99428.16;112265;1244;23837;-80
2023/12/10 01:29:59;;;;;;;36.60;32.40;;;;;;;-0.11;100.00;99428.17;112349;1244;23070;-81
2023/12/10 01:32:27;;;;;;;40.80;33.40;;;;;;;-0.13;100.00;99428.04;112282;1244;24432;-81
2023/12/10 01:34:56;;;;;;;43.30;34.20;;;;;;;-0.14;100.00;99418.64;112193;1243;23693;-81
2023/12/10 01:37:24;;;;;;;43.40;34.00;;;;;;;-0.16;100.00;99422.06;111643;1249;23695;-81
2023/12/10 01:39:52;;;;;;;41.40;35.30;;;;;;;-0.17;100.00;99428.76;111933;1248;21966;-82
2023/12/10 01:42:20;;;;;;;43.80;34.40;;;;;;;-0.20;100.00;99429.97;111897;1248;22727;-81
2023/12/10 01:44:48;;;;;;;44.80;36.20;;;;;;;-0.20;100.00;99428.45;111788;1245;21980;-81
2023/12/10 01:47:18;;;;;;;42.10;33.70;;;;;;;-0.22;100.00;99433.23;112416;1242;22727;-82
2023/12/10 01:49:47;;;;;;;44.60;36.30;;;;;;;-0.21;100.00;99433.23;112630;1239;21923;-82
2023/12/10 01:52:15;;;;;;;46.10;38.20;;;;;;;-0.18;100.00;99430.30;112313;1245;22002;-80
2023/12/10 01:54:50;;;;;;;44.00;35.00;;;;;;;-0.15;100.00;99418.98;112224;1241;21990;-83
2023/12/10 01:57:19;;;;;;;44.50;35.60;;;;;;;-0.16;100.00;99408.56;112843;1241;23073;-83
2023/12/10 01:59:47;;;;;;;43.90;35.40;;;;;;;-0.16;100.00;99403.09;112699;1241;21953;-79
2023/12/10 02:02:15;;;;;;;44.50;37.70;;;;;;;-0.14;100.00;99398.63;112721;1241;21956;-79
2023/12/10 02:04:43;;;;;;;43.40;35.60;;;;;;;-0.13;100.00;99397.42;112288;1245;22027;-79
2023/12/10 02:07:11;;;;;;;42.70;35.50;;;;;;;-0.13;100.00;99405.28;111628;1250;22737;-81
2023/12/10 02:09:40;;;;;;;43.50;35.10;;;;;;;-0.13;100.00;99403.40;111432;1250;21993;-80
2023/12/10 02:12:09;;;;;;;45.20;38.30;;;;;;;-0.12;100.00;99409.05;111714;1250;22431;-82
2023/12/10 02:14:37;;;;;;;51.90;42.00;;;;;;;-0.12;100.00;99404.08;111783;1250;22731;-81
2023/12/10 02:21:29;;;;;;;42.50;34.30;;;;;;;-0.14;100.00;99403.07;110864;1260;21980;-80
2023/12/10 02:24:11;;;;;;;45.40;35.80;;;;;;;-0.12;100.00;99408.02;110946;1258;22010;-80
2023/12/10 02:26:43;;;;;;;42.00;35.50;;;;;;;-0.11;100.00;99406.46;111339;1254;22874;-80
2023/12/10 02:29:11;;;;;;;45.70;36.50;;;;;;;-0.07;100.00;99400.10;111240;1254;22419;-79
2023/12/10 02:31:40;;;;;;;45.40;36.80;;;;;;;-0.06;100.00;99394.79;111461;1253;21974;-79
2023/12/10 02:34:10;;;;;;;42.60;36.60;;;;;;;-0.06;100.00;99397.36;111364;1253;22222;-79
2023/12/10 02:36:41;;;;;;;42.30;35.80;;;;;;;-0.07;100.00;99398.73;110958;1260;22856;-80
2023/12/10 02:39:10;;;;;;;44.30;36.00;;;;;;;-0.07;100.00;99393.94;110846;1260;22010;-79
2023/12/10 02:41:39;;;;;;;41.90;35.40;;;;;;;-0.07;100.00;99387.44;110974;1260;23620;-80
2023/12/10 02:44:13;;;;;;;46.30;36.20;;;;;;;-0.06;100.00;99380.77;110980;1260;22988;-81
2023/12/10 02:46:49;;;;;;;38.40;34.00;;;;;;;-0.07;100.00;99378.71;110957;1260;23723;-81
2023/12/10 02:49:18;;;;;;;42.30;35.70;;;;;;;-0.08;100.00;99370.34;110990;1259;21994;-82
2023/12/10 02:51:52;;;;;;;44.40;35.00;;;;;;;-0.10;100.00;99360.10;110863;1260;22665;-82
2023/12/10 02:54:21;;;;;;;39.70;32.90;;;;;;;-0.11;100.00;99358.92;110593;1258;21967;-81
2023/12/10 02:56:53;;;;;;;40.20;34.10;;;;;;;-0.11;100.00;99357.22;111231;1245;22072;-81
2023/12/10 02:59:24;;;;;;;41.80;34.00;;;;;;;-0.09;100.00;99362.50;112763;1239;22943;-82
2023/12/10 03:01:53;;;;;;;41.30;33.40;;;;;;;-0.07;100.00;99362.30;113086;1231;22489;-81
2023/12/10 03:04:24;;;;;;;40.10;32.60;;;;;;;-0.05;100.00;99363.82;113014;1239;21974;-78
2023/12/10 03:06:53;;;;;;;39.60;33.60;;;;;;;-0.03;100.00;99365.67;112278;1243;21945;-81
2023/12/10 03:09:22;;;;;;;41.20;33.60;;;;;;;-0.01;100.00;99362.24;112672;1243;21948;-82
2023/12/10 03:11:53;;;;;;;42.90;34.00;;;;;;;0.01;100.00;99358.79;112698;1238;22408;-80
2023/12/10 03:14:22;;;;;;;47.20;36.10;;;;;;;0.03;100.00;99356.89;113154;1239;21948;-81
2023/12/10 03:16:50;;;;;;;38.90;32.30;;;;;;;0.06;100.00;99352.41;112434;1239;23578;-80
2023/12/10 03:19:18;;;;;;;42.10;31.70;;;;;;;0.07;100.00;99348.81;112909;1239;24298;-82
2023/12/10 03:21:46;;;;;;;36.70;30.60;;;;;;;0.10;100.00;99342.45;112838;1239;21948;-80
2023/12/10 03:24:14;;;;;;;35.20;29.70;;;;;;;0.13;100.00;99337.10;112772;1239;22802;-82
2023/12/10 03:26:42;;;;;;;35.60;28.40;;;;;;;0.17;100.00;99330.05;112608;1238;23146;-82
2023/12/10 03:29:10;;;;;;;36.40;29.70;;;;;;;0.20;100.00;99328.48;113117;1239;21975;-81
2023/12/10 03:31:38;;;;;;;35.50;29.10;;;;;;;0.23;100.00;99322.45;112799;1233;21954;-81
2023/12/10 03:34:06;;;;;;;35.80;27.80;;;;;;;0.25;100.00;99327.73;113455;1233;23797;-80
2023/12/10 03:36:34;;;;;;;32.10;27.50;;;;;;;0.28;100.00;99332.14;113360;1233;21935;-80
2023/12/10 03:39:02;;;;;;;34.60;27.90;;;;;;;0.29;100.00;99338.62;113406;1233;23669;-80
2023/12/10 03:41:30;;;;;;;31.40;26.20;;;;;;;0.31;100.00;99342.02;113385;1234;24364;-79
2023/12/10 03:43:58;;;;;;;33.30;27.90;;;;;;;0.32;100.00;99340.80;113362;1233;21958;-79
2023/12/10 03:46:26;;;;;;;35.00;28.10;;;;;;;0.32;100.00;99339.27;113091;1238;21958;-80
2023/12/10 03:48:55;;;;;;;33.50;29.10;;;;;;;0.32;100.00;99341.48;112923;1238;22603;-81
2023/12/10 03:51:23;;;;;;;34.40;28.60;;;;;;;0.32;100.00;99339.44;113155;1238;22979;-78
2023/12/10 03:53:51;;;;;;;35.80;28.80;;;;;;;0.33;100.00;99340.46;112999;1230;23006;-77
2023/12/10 03:56:19;;;;;;;37.50;29.70;;;;;;;0.31;100.00;99331.94;112963;1238;23102;-78
2023/12/10 03:58:47;;;;;;;35.60;29.00;;;;;;;0.33;100.00;99332.07;112821;1233;21937;-77
2023/12/10 04:01:20;;;;;;;38.60;32.00;;;;;;;0.34;100.00;99338.22;112870;1238;22605;-80
2023/12/10 04:03:48;;;;;;;33.80;29.30;;;;;;;0.34;100.00;99338.40;112869;1233;22738;-81
2023/12/10 04:06:17;;;;;;;36.40;29.40;;;;;;;0.32;100.00;99338.94;113534;1233;21928;-83
2023/12/10 04:08:45;;;;;;;38.20;31.00;;;;;;;0.29;100.00;99338.80;113652;1233;21946;-82
2023/12/10 04:11:22;;;;;;;39.10;32.40;;;;;;;0.26;100.00;99336.77;113455;1233;22412;-82
2023/12/10 04:13:51;;;;;;;39.20;32.40;;;;;;;0.23;100.00;99335.45;113511;1238;21983;-82
2023/12/10 04:16:27;;;;;;;39.00;31.00;;;;;;;0.22;100.00;99335.63;113428;1238;21952;-81
2023/12/10 04:18:56;;;;;;;34.80;31.10;;;;;;;0.22;100.00;99336.48;113142;1238;21985;-81
2023/12/10 04:21:28;;;;;;;38.90;30.90;;;;;;;0.21;100.00;99338.55;113388;1238;21961;-82
2023/12/10 04:24:00;;;;;;;36.40;30.30;;;;;;;0.21;100.00;99341.11;113263;1238;23682;-81
2023/12/10 04:26:34;;;;;;;39.50;31.80;;;;;;;0.22;100.00;99342.98;112575;1243;23172;-81
2023/12/10 04:29:05;;;;;;;36.50;31.40;;;;;;;0.20;100.00;99344.55;112151;1247;21964;-82
2023/12/10 04:31:37;;;;;;;37.40;31.20;;;;;;;0.20;100.00;99345.58;112455;1243;22001;-82
2023/12/10 04:34:05;;;;;;;40.50;32.70;;;;;;;0.20;100.00;99342.34;112462;1243;21960;-81
2023/12/10 04:36:34;;;;;;;38.50;31.50;;;;;;;0.19;100.00;99342.50;112363;1244;23610;-82
2023/12/10 04:39:08;;;;;;;40.20;33.40;;;;;;;0.17;100.00;99345.62;111607;1249;21973;-82
2023/12/10 04:41:42;;;;;;;39.30;33.30;;;;;;;0.16;100.00;99350.23;111873;1249;23681;-82
2023/12/10 04:44:19;;;;;;;42.00;35.70;;;;;;;0.17;100.00;99350.23;112128;1245;21961;-81
2023/12/10 04:46:47;;;;;;;37.20;31.20;;;;;;;0.16;100.00;99355.36;112177;1244;21986;-81
2023/12/10 04:49:18;;;;;;;40.80;31.40;;;;;;;0.17;100.00;99355.36;111936;1249;21957;-81
2023/12/10 04:51:50;;;;;;;38.70;32.50;;;;;;;0.17;100.00;99360.15;111892;1249;21954;-82
2023/12/10 04:54:19;;;;;;;37.30;31.70;;;;;;;0.18;100.00;99365.45;112076;1246;22153;-81
2023/12/10 04:56:52;;;;;;;40.80;32.40;;;;;;;0.19;100.00;99371.42;112182;1246;23747;-82
2023/12/10 04:59:21;;;;;;;39.00;32.90;;;;;;;0.19;100.00;99383.91;112242;1246;21936;-82
2023/12/10 05:01:52;;;;;;;40.00;33.00;;;;;;;0.20;100.00;99389.22;112194;1245;24519;-84
2023/12/10 05:04:23;;;;;;;41.70;32.90;;;;;;;0.22;100.00;99390.23;112920;1239;22339;-82
2023/12/10 05:06:56;;;;;;;40.50;32.40;;;;;;;0.22;100.00;99386.45;113136;1233;21969;-81
2023/12/10 05:09:32;;;;;;;61.50;49.20;;;;;;;0.23;100.00;99381.48;113734;1233;21971;-83
2023/12/10 05:12:01;;;;;;;40.00;33.50;;;;;;;0.24;100.00;99381.48;113780;1233;21966;-82
2023/12/10 05:14:30;;;;;;;37.90;30.90;;;;;;;0.23;100.00;99377.88;113565;1233;23692;-82
2023/12/10 05:17:06;;;;;;;40.90;34.00;;;;;;;0.23;100.00;99381.81;113565;1233;21939;-83
2023/12/10 05:19:38;;;;;;;42.50;32.60;;;;;;;0.22;100.00;99378.06;113575;1233;21935;-82
2023/12/10 05:22:19;;;;;;;40.50;32.50;;;;;;;0.22;100.00;99376.35;113530;1226;23736;-82
2023/12/10 05:24:51;;;;;;;39.30;32.70;;;;;;;0.14;100.00;99360.19;113573;1233;21936;-81
2023/12/10 05:27:23;;;;;;;36.30;30.70;;;;;;;0.23;100.00;99375.33;113839;1233;21910;-81
2023/12/10 05:29:52;;;;;;;35.10;29.60;;;;;;;0.23;100.00;99373.77;113580;1233;23096;-80
2023/12/10 05:32:35;;;;;;;39.10;32.10;;;;;;;0.22;100.00;99373.62;113751;1233;21995;-81
2023/12/10 05:35:08;;;;;;;38.10;29.90;;;;;;;0.21;100.00;99374.48;113483;1234;22950;-81
2023/12/10 05:37:40;;;;;;;36.20;29.80;;;;;;;0.22;100.00;99368.83;113795;1233;24348;-82
2023/12/10 05:40:15;;;;;;;36.00;30.30;;;;;;;0.23;100.00;99364.19;113253;1238;23705;-82
2023/12/10 05:42:46;;;;;;;37.70;27.70;;;;;;;0.25;100.00;99373.77;112507;1244;23639;-83
2023/12/10 05:45:16;;;;;;;36.30;30.00;;;;;;;0.27;100.00;99381.27;112389;1244;23694;-81
2023/12/10 05:47:45;;;;;;;36.00;30.00;;;;;;;0.30;100.00;99389.10;112516;1244;21975;-81
2023/12/10 05:50:18;;;;;;;42.00;34.60;;;;;;;0.32;100.00;99393.36;112418;1244;23568;-83
2023/12/10 05:52:51;;;;;;;44.60;34.50;;;;;;;0.27;100.00;99384.17;109707;1244;3589057;-82
2023/12/10 05:55:20;;;;;;;36.80;30.50;;;;;;;0.36;100.00;99398.96;111854;1249;23716;-82
2023/12/10 05:57:49;;;;;;;37.90;31.70;;;;;;;0.39;100.00;99399.60;111945;1246;21985;-80
2023/12/10 06:00:18;;;;;;;38.00;31.10;;;;;;;0.42;100.00;99396.17;112519;1240;23513;-81
2023/12/10 06:02:47;;;;;;;35.90;30.40;;;;;;;0.44;100.00;99398.01;113132;1240;21973;-79
2023/12/10 06:05:16;;;;;;;34.80;28.40;;;;;;;0.47;100.00;99401.55;112986;1240;21975;-81
2023/12/10 06:07:44;;;;;;;35.20;28.50;;;;;;;0.51;100.00;99404.59;113152;1240;21903;-80
2023/12/10 06:10:16;;;;;;;32.20;28.50;;;;;;;0.57;100.00;99402.14;112168;1247;21976;-82
2023/12/10 06:12:45;;;;;;;34.40;28.40;;;;;;;0.59;100.00;99403.47;112255;1241;22614;-81
2023/12/10 06:15:14;;;;;;;35.40;28.80;;;;;;;0.63;100.00;99412.84;113154;1241;22421;-81
2023/12/10 06:17:43;;;;;;;33.80;26.80;;;;;;;0.66;100.00;99418.64;111948;1247;21979;-80
2023/12/10 06:20:12;;;;;;;34.80;28.30;;;;;;;0.69;100.00;99418.77;112124;1247;22132;-81
2023/12/10 06:22:43;;;;;;;32.50;28.50;;;;;;;0.73;100.00;99418.02;112157;1246;23636;-81
2023/12/10 06:25:14;;;;;;;29.40;25.90;;;;;;;0.77;100.00;99417.12;111936;1247;22435;-84
2023/12/10 06:27:47;;;;;;;33.40;28.60;;;;;;;0.77;100.00;99420.55;112250;1247;21954;-81
2023/12/10 06:30:18;;;;;;;32.60;25.90;;;;;;;0.77;100.00;99425.52;112180;1246;23118;-83
2023/12/10 06:32:49;;;;;;;31.30;27.90;;;;;;;0.79;100.00;99431.83;112220;1247;24266;-82
2023/12/10 06:35:22;;;;;;;32.70;27.40;;;;;;;0.82;100.00;99428.53;112798;1233;21949;-83
2023/12/10 06:37:52;;;;;;;56.50;48.10;;;;;;;0.84;100.00;99433.13;113542;1233;21933;-82
2023/12/10 06:40:24;;;;;;;36.50;28.60;;;;;;;0.86;100.00;99439.11;113567;1233;22738;-83
2023/12/10 06:42:53;;;;;;;40.30;30.60;;;;;;;0.87;100.00;99441.66;113793;1233;24092;-82
2023/12/10 06:45:24;;;;;;;36.10;29.90;;;;;;;0.90;100.00;99445.73;113779;1233;21973;-82
2023/12/10 06:48:00;;;;;;;34.20;30.20;;;;;;;0.93;100.00;99449.98;113544;1233;22186;-82
2023/12/10 06:50:33;;;;;;;38.00;32.30;;;;;;;0.94;100.00;99458.18;113762;1233;22034;-80
2023/12/10 06:53:04;;;;;;;38.50;32.30;;;;;;;0.95;100.00;99457.13;113604;1233;21969;-83
2023/12/10 06:55:34;;;;;;;37.40;30.90;;;;;;;0.97;100.00;99461.75;113665;1233;24349;-83
2023/12/10 06:58:03;;;;;;;33.80;29.50;;;;;;;0.97;100.00;99467.40;113695;1233;21938;-82
2023/12/10 07:00:36;;;;;;;33.50;29.80;;;;;;;0.99;100.00;99471.30;113780;1233;23607;-82
2023/12/10 07:03:06;;;;;;;34.30;30.30;;;;;;;1.02;100.00;99476.06;113706;1233;22351;-82
2023/12/10 07:05:39;;;;;;;35.60;31.80;;;;;;;1.03;100.00;99473.14;113406;1238;22744;-84
2023/12/10 07:08:16;;;;;;;56.90;47.10;;;;;;;1.04;100.00;99476.91;113491;1238;22407;-82
2023/12/10 07:10:54;;;;;;;69.70;62.10;;;;;;;1.06;100.00;99481.16;113363;1238;23696;-82
2023/12/10 07:13:23;;;;;;;41.00;36.50;;;;;;;1.05;100.00;99477.58;113286;1238;22088;-83
2023/12/10 07:15:51;;;;;;;38.50;33.40;;;;;;;1.04;100.00;99479.98;113364;1237;23995;-82
2023/12/10 07:18:38;;;;;;;40.20;34.90;;;;;;;1.01;100.00;99474.20;113447;1238;21924;-83
2023/12/10 07:21:18;;;;;;;38.20;32.60;;;;;;;1.00;100.00;99467.70;113277;1238;21978;-82
2023/12/10 07:23:48;;;;;;;38.10;33.90;;;;;;;0.99;100.00;99469.26;113654;1233;21993;-83
2023/12/10 07:26:26;;;;;;;45.50;33.60;;;;;;;0.98;100.00;99472.70;113540;1233;21955;-81
2023/12/10 07:28:55;;;;;;;45.60;38.50;;;;;;;0.96;100.00;99474.27;112977;1239;23681;-82
2023/12/10 07:31:26;;;;;;;40.70;35.60;;;;;;;0.96;100.00;99473.58;112298;1245;21954;-82
2023/12/10 07:34:01;;;;;;;49.50;38.20;;;;;;;0.97;100.00;99471.17;112450;1246;21962;-82
2023/12/10 07:36:30;;;;;;;42.00;34.30;;;;;;;0.98;100.00;99468.77;112252;1246;21951;-82
2023/12/10 07:39:01;;;;;;;38.20;34.00;;;;;;;0.99;100.00;99473.20;111773;1252;21935;-82
2023/12/10 07:41:29;;;;;;;40.10;33.50;;;;;;;1.01;100.00;99476.94;111872;1248;22032;-83
2023/12/10 07:44:07;;;;;;;40.10;33.60;;;;;;;1.03;100.00;99478.96;111617;1251;22135;-82
2023/12/10 07:46:35;;;;;;;41.10;36.40;;;;;;;1.08;100.00;99483.55;111935;1246;23642;-80
2023/12/10 07:49:04;;;;;;;36.40;31.70;;;;;;;1.14;100.00;99488.27;112521;1240;21995;-81
2023/12/10 07:51:33;;;;;;;39.40;32.40;;;;;;;1.18;100.00;99496.26;113173;1240;23704;-81
2023/12/10 07:54:04;;;;;;;42.10;35.10;;;;;;;1.21;100.00;99496.73;112458;1244;21953;-82
2023/12/10 07:56:37;;;;;;;;;;;;;;;1.25;100.00;99494.13;112706;1239;22065;-83
2023/12/10 07:59:13;;;;;;;39.50;34.50;;;;;;;1.19;100.00;99485.27;113034;1239;22028;-81
2023/12/10 08:01:50;;;;;;;64.80;49.40;;;;;;;1.22;100.00;99487.80;112850;1239;21941;-81
2023/12/10 08:04:19;;;;;;;55.10;45.70;;;;;;;1.25;100.00;99491.88;112329;1244;21970;-85
2023/12/10 08:06:50;;;;;;;44.40;38.50;;;;;;;1.32;100.00;99501.90;112217;1247;23339;-81
2023/12/10 08:09:21;;;;;;;60.90;54.20;;;;;;;1.40;100.00;99501.45;112162;1247;21952;-82
2023/12/10 08:11:50;;;;;;;53.90;45.50;;;;;;;1.45;100.00;99494.35;111980;1247;21976;-82
2023/12/10 08:14:25;;;;;;;46.30;41.30;;;;;;;1.46;100.00;99498.62;112103;1247;24371;-81
2023/12/10 08:16:54;;;;;;;49.90;40.50;;;;;;;1.49;100.00;99503.04;112036;1246;23622;-84
2023/12/10 08:19:23;;;;;;;47.10;42.00;;;;;;;1.52;100.00;99503.86;112251;1246;21937;-81
2023/12/10 08:21:52;;;;;;;46.30;41.10;;;;;;;1.57;100.00;99507.73;112145;1244;21946;-81
2023/12/10 08:24:21;;;;;;;45.70;40.70;;;;;;;1.57;100.00;99502.23;112315;1244;24299;-81
2023/12/10 08:27:03;;;;;;;58.90;48.30;;;;;;;1.63;100.00;99508.84;112217;1244;24320;-81
2023/12/10 08:29:37;;;;;;;69.60;49.70;;;;;;;1.68;100.00;99509.96;112651;1244;23729;-82
2023/12/10 08:32:08;;;;;;;65.50;50.10;;;;;;;1.61;100.00;99493.42;112763;1239;23724;-81
2023/12/10 08:34:46;;;;;;;50.20;40.40;;;;;;;1.63;100.00;99504.54;112506;1244;23792;-81
2023/12/10 08:37:23;;;;;;;81.30;63.60;;;;;;;1.70;100.00;99510.27;113009;1239;23687;-80
2023/12/10 08:39:57;;;;;;;129.00;85.90;;;;;;;1.83;100.00;99524.31;113101;1239;21942;-80
2023/12/10 08:42:27;;;;;;;314.20;202.10;;;;;;;1.88;100.00;99524.73;113024;1239;21960;-83
2023/12/10 08:44:59;;;;;;;149.30;103.60;;;;;;;1.90;100.00;99530.56;113028;1239;22857;-81
2023/12/10 08:47:31;;;;;;;144.30;79.60;;;;;;;1.92;100.00;99533.61;113078;1239;24600;-82
2023/12/10 08:50:04;;;;;;;77.50;48.30;;;;;;;1.94;100.00;99527.41;112647;1244;23812;-81
2023/12/10 08:52:33;;;;;;;68.60;43.20;;;;;;;1.96;100.00;99532.52;112245;1244;21926;-80
2023/12/10 08:55:05;;;;;;;58.00;40.40;;;;;;;1.96;100.00;99539.73;111897;1250;22355;-81
2023/12/10 08:57:36;;;;;;;70.30;45.50;;;;;;;1.98;100.00;99534.73;111992;1250;21971;-80
2023/12/10 09:00:11;;;;;;;88.20;51.60;;;;;;;2.01;100.00;99533.81;111926;1250;22011;-83
2023/12/10 09:02:41;;;;;;;60.50;41.60;;;;;;;2.06;100.00;99533.58;112147;1249;21959;-84
2023/12/10 09:05:11;;;;;;;77.40;45.40;;;;;;;2.12;100.00;99533.63;111574;1255;23050;-80
2023/12/10 09:07:45;;;;;;;60.80;38.80;;;;;;;2.17;100.00;99536.48;111401;1250;22007;-82
2023/12/10 09:10:19;;;;;;;67.90;39.40;;;;;;;2.18;100.00;99533.37;111782;1246;21956;-82
2023/12/10 09:12:51;;;;;;;64.50;42.20;;;;;;;2.19;100.00;99535.23;112418;1241;23010;-81
2023/12/10 09:15:24;;;;;;;55.70;37.00;;;;;;;2.23;100.00;99529.85;112950;1241;21941;-83
2023/12/10 09:17:56;;;;;;;83.10;45.90;;;;;;;2.24;100.00;99534.29;112965;1240;23574;-79
2023/12/10 09:20:26;;;;;;;63.60;36.90;;;;;;;2.30;100.00;99532.30;112418;1245;21965;-80
2023/12/10 09:22:57;;;;;;;43.80;32.10;;;;;;;2.35;100.00;99532.58;112053;1244;21976;-82
2023/12/10 09:25:28;;;;;;;64.00;41.40;;;;;;;2.35;100.00;99534.63;112429;1244;21934;-82
2023/12/10 09:27:58;;;;;;;63.90;38.70;;;;;;;2.34;100.00;99537.90;111948;1249;21928;-82
2023/12/10 09:30:29;;;;;;;62.60;39.00;;;;;;;2.34;100.00;99534.48;112010;1250;21964;-80
2023/12/10 09:32:58;;;;;;;77.10;44.00;;;;;;;2.36;100.00;99524.82;111941;1249;21958;-81
2023/12/10 09:35:30;;;;;;;74.70;43.00;;;;;;;2.44;100.00;99524.00;111930;1249;21960;-81
2023/12/10 09:38:00;;;;;;;51.60;35.00;;;;;;;2.49;100.00;99521.84;112028;1246;23687;-81
2023/12/10 09:40:38;;;;;;;65.70;42.30;;;;;;;2.53;100.00;99523.48;112577;1242;22093;-80
2023/12/10 09:43:11;;;;;;;270.80;164.50;;;;;;;2.57;100.00;99523.77;112302;1247;21973;-81
2023/12/10 09:46:03;;;;;;;165.30;103.10;;;;;;;2.60;100.00;99523.52;111853;1247;21958;-81
2023/12/10 09:48:51;;;;;;;97.60;49.20;;;;;;;2.62;100.00;99517.83;112027;1241;23022;-83
2023/12/10 09:51:53;;;;;;;76.90;40.90;;;;;;;2.63;100.00;99522.96;112309;1248;21952;-83
2023/12/10 09:54:58;;;;;;;67.90;37.30;;;;;;;2.64;100.00;99523.45;112026;1249;22315;-81
2023/12/10 09:57:30;;;;;;;59.00;34.00;;;;;;;2.73;100.00;99514.35;112116;1249;22046;-83
2023/12/10 10:00:01;;;;;;;97.90;51.00;;;;;;;2.77;100.00;99512.38;111919;1249;24298;-81
2023/12/10 10:02:36;;;;;;;80.80;43.00;;;;;;;2.88;100.00;99516.29;111864;1252;21987;-81
2023/12/10 10:05:09;;;;;;;60.10;35.50;;;;;;;3.01;100.00;99517.06;111912;1251;21986;-81
2023/12/10 10:07:38;;;;;;;87.20;43.20;;;;;;;3.11;100.00;99521.67;111912;1251;23078;-82
2023/12/10 10:10:11;;;;;;;40.00;29.80;;;;;;;3.18;100.00;99523.78;112088;1245;23729;-81
2023/12/10 10:12:44;;;;;;;53.00;35.80;;;;;;;3.20;100.00;99524.42;112716;1243;21948;-81
2023/12/10 10:15:33;;;;;;;40.00;31.60;;;;;;;3.21;100.00;99526.30;112653;1243;21965;-82
2023/12/10 10:18:06;;;;;;;50.60;34.60;;;;;;;3.19;100.00;99527.88;113000;1239;21959;-81
2023/12/10 10:20:42;;;;;;;68.10;50.30;;;;;;;3.20;100.00;99524.60;113577;1233;22106;-81
2023/12/10 10:23:14;;;;;;;70.20;46.20;;;;;;;3.22;100.00;99529.20;113736;1233;23015;-82
2023/12/10 10:25:43;;;;;;;64.50;43.20;;;;;;;3.25;100.00;99528.62;113278;1238;21938;-84
2023/12/10 10:28:12;;;;;;;47.20;34.60;;;;;;;3.25;100.00;99529.48;113221;1238;21960;-80
2023/12/10 10:30:43;;;;;;;55.90;41.90;;;;;;;3.22;100.00;99532.30;113081;1238;21973;-79
2023/12/10 10:33:16;;;;;;;58.40;36.80;;;;;;;3.20;100.00;99531.30;113040;1238;21927;-85
2023/12/10 10:35:47;;;;;;;52.20;36.00;;;;;;;3.17;100.00;99532.73;113176;1238;22994;-82
2023/12/10 10:38:18;;;;;;;39.40;31.60;;;;;;;3.13;100.00;99534.19;112538;1244;21977;-82
2023/12/10 10:40:48;;;;;;;38.70;31.00;;;;;;;3.07;100.00;99536.02;112514;1243;23014;-82
2023/12/10 10:43:18;;;;;;;46.00;35.50;;;;;;;3.06;100.00;99537.95;112339;1241;21951;-80
2023/12/10 10:45:50;;;;;;;48.10;41.80;;;;;;;3.04;100.00;99535.75;113052;1239;21946;-81
2023/12/10 10:48:27;;;;;;;45.20;39.30;;;;;;;3.05;100.00;99538.32;112694;1239;22708;-83
2023/12/10 10:51:02;;;;;;;48.80;38.90;;;;;;;3.07;100.00;99537.07;113048;1239;21942;-80
2023/12/10 10:53:34;;;;;;;59.10;41.40;;;;;;;3.15;100.00;99540.02;113053;1237;23046;-82
2023/12/10 10:56:05;;;;;;;61.00;41.50;;;;;;;3.22;100.00;99544.69;112442;1241;21941;-82
2023/12/10 10:58:39;;;;;;;50.40;35.70;;;;;;;3.25;100.00;99553.36;112782;1239;21941;-82
2023/12/10 11:01:41;;;;;;;52.90;35.00;;;;;;;3.27;100.00;99559.01;112522;1244;21975;-83
2023/12/10 11:04:15;;;;;;;52.80;37.40;;;;;;;3.27;100.00;99556.77;112409;1244;23582;-82
2023/12/10 11:06:49;;;;;;;52.00;37.30;;;;;;;3.30;100.00;99550.87;112463;1244;21945;-83
2023/12/10 11:09:19;;;;;;;58.30;42.30;;;;;;;3.31;100.00;99549.13;112319;1244;23012;-81
2023/12/10 11:11:50;;;;;;;60.40;42.30;;;;;;;3.36;100.00;99548.51;112305;1244;22008;-84
2023/12/10 11:14:26;;;;;;;123.10;78.40;;;;;;;3.35;100.00;99552.48;112385;1244;21975;-82
2023/12/10 11:17:09;;;;;;;56.90;42.70;;;;;;;3.26;100.00;99547.67;111791;1250;21978;-80
2023/12/10 11:19:39;;;;;;;65.60;41.20;;;;;;;3.28;100.00;99558.82;112215;1246;23017;-81
2023/12/10 11:22:07;;;;;;;60.80;39.30;;;;;;;3.28;100.00;99564.33;112154;1246;22139;-82
2023/12/10 11:24:38;;;;;;;71.80;43.40;;;;;;;3.27;100.00;99568.81;112166;1246;21920;-81
2023/12/10 11:27:14;;;;;;;64.30;45.90;;;;;;;3.26;100.00;99570.05;112337;1246;21965;-79
2023/12/10 11:29:46;;;;;;;56.40;41.40;;;;;;;3.26;100.00;99570.05;112044;1249;21980;-82
2023/12/10 11:32:19;;;;;;;92.50;70.80;;;;;;;3.26;100.00;99575.35;112087;1246;22004;-80